sensor_id;sensor_type;location;lat;lon;timestamp;P1;durP1;ratioP1;P2;durP2;ratioP2
21181;SDS011;10749;46.296;7.524;2022-07-12T00:01:20;1.98;;;1.17;;
21181;SDS011;10749;46.296;7.524;2022-07-12T00:03:45;2.65;;;1.00;;
21181;SDS011;10749;46.296;7.524;2022-07-12T00:06:11;3.70;;;1.40;;
21181;SDS011;10749;46.296;7.524;2022-07-12T00:08:37;4.25;;;1.30;;
21181;SDS011;10749;46.296;7.524;2022-07-12T00:11:03;3.30;;;1.27;;
21181;SDS011;10749;46.296;7.524;2022-07-12T00:13:29;3.05;;;1.35;;
21181;SDS011;10749;46.296;7.524;2022-07-12T00:15:55;2.67;;;1.48;;
21181;SDS011;10749;46.296;7.524;2022-07-12T00:18:21;4.78;;;1.33;;
21181;SDS011;10749;46.296;7.524;2022-07-12T00:20:47;1.83;;;1.30;;
21181;SDS011;10749;46.296;7.524;2022-07-12T00:23:12;1.48;;;1.20;;
21181;SDS011;10749;46.296;7.524;2022-07-12T00:25:37;3.15;;;1.38;;
21181;SDS011;10749;46.296;7.524;2022-07-12T00:28:03;2.65;;;1.40;;
21181;SDS011;10749;46.296;7.524;2022-07-12T00:30:28;4.32;;;1.40;;
21181;SDS011;10749;46.296;7.524;2022-07-12T00:32:54;2.17;;;1.30;;
21181;SDS011;10749;46.296;7.524;2022-07-12T00:35:19;1.88;;;1.17;;
21181;SDS011;10749;46.296;7.524;2022-07-12T00:37:44;3.33;;;1.35;;
21181;SDS011;10749;46.296;7.524;2022-07-12T00:40:10;4.20;;;1.33;;
21181;SDS011;10749;46.296;7.524;2022-07-12T00:42:36;1.48;;;1.10;;
21181;SDS011;10749;46.296;7.524;2022-07-12T00:45:03;1.67;;;1.20;;
21181;SDS011;10749;46.296;7.524;2022-07-12T00:50:06;5.10;;;1.58;;
21181;SDS011;10749;46.296;7.524;2022-07-12T00:52:32;1.45;;;1.10;;
21181;SDS011;10749;46.296;7.524;2022-07-12T00:54:58;3.63;;;1.40;;
21181;SDS011;10749;46.296;7.524;2022-07-12T00:57:23;2.45;;;1.10;;
21181;SDS011;10749;46.296;7.524;2022-07-12T00:59:49;1.85;;;1.02;;
21181;SDS011;10749;46.296;7.524;2022-07-12T01:02:15;3.03;;;1.23;;
21181;SDS011;10749;46.296;7.524;2022-07-12T01:04:40;3.75;;;1.10;;
21181;SDS011;10749;46.296;7.524;2022-07-12T01:07:08;3.25;;;1.30;;
21181;SDS011;10749;46.296;7.524;2022-07-12T01:09:33;2.08;;;1.40;;
21181;SDS011;10749;46.296;7.524;2022-07-12T01:11:59;2.38;;;1.23;;
21181;SDS011;10749;46.296;7.524;2022-07-12T01:14:24;2.65;;;1.38;;
21181;SDS011;10749;46.296;7.524;2022-07-12T01:16:50;1.52;;;1.20;;
21181;SDS011;10749;46.296;7.524;2022-07-12T01:19:18;4.45;;;1.45;;
21181;SDS011;10749;46.296;7.524;2022-07-12T01:21:46;2.42;;;1.13;;
21181;SDS011;10749;46.296;7.524;2022-07-12T01:24:12;3.88;;;1.50;;
21181;SDS011;10749;46.296;7.524;2022-07-12T01:26:38;3.47;;;1.55;;
21181;SDS011;10749;46.296;7.524;2022-07-12T01:29:05;2.97;;;1.45;;
21181;SDS011;10749;46.296;7.524;2022-07-12T01:31:33;2.67;;;1.50;;
21181;SDS011;10749;46.296;7.524;2022-07-12T01:34:00;2.70;;;1.10;;
21181;SDS011;10749;46.296;7.524;2022-07-12T01:36:27;2.90;;;1.60;;
21181;SDS011;10749;46.296;7.524;2022-07-12T01:38:53;2.53;;;1.20;;
21181;SDS011;10749;46.296;7.524;2022-07-12T01:41:18;2.58;;;1.50;;
21181;SDS011;10749;46.296;7.524;2022-07-12T01:43:44;1.90;;;1.30;;
21181;SDS011;10749;46.296;7.524;2022-07-12T01:46:09;2.03;;;1.35;;
21181;SDS011;10749;46.296;7.524;2022-07-12T01:48:35;2.35;;;1.55;;
21181;SDS011;10749;46.296;7.524;2022-07-12T01:51:00;2.80;;;1.20;;
21181;SDS011;10749;46.296;7.524;2022-07-12T01:53:26;5.03;;;1.45;;
21181;SDS011;10749;46.296;7.524;2022-07-12T01:55:52;2.00;;;1.58;;
21181;SDS011;10749;46.296;7.524;2022-07-12T01:58:17;1.98;;;1.23;;
21181;SDS011;10749;46.296;7.524;2022-07-12T02:00:42;2.20;;;1.45;;
21181;SDS011;10749;46.296;7.524;2022-07-12T02:03:12;3.20;;;1.30;;
21181;SDS011;10749;46.296;7.524;2022-07-12T02:05:37;3.53;;;1.20;;
21181;SDS011;10749;46.296;7.524;2022-07-12T02:08:02;3.17;;;1.55;;
21181;SDS011;10749;46.296;7.524;2022-07-12T02:10:28;2.50;;;1.40;;
21181;SDS011;10749;46.296;7.524;2022-07-12T02:12:54;3.45;;;1.50;;
21181;SDS011;10749;46.296;7.524;2022-07-12T02:15:19;2.83;;;1.27;;
21181;SDS011;10749;46.296;7.524;2022-07-12T02:17:44;3.88;;;1.50;;
21181;SDS011;10749;46.296;7.524;2022-07-12T02:20:11;2.60;;;1.50;;
21181;SDS011;10749;46.296;7.524;2022-07-12T02:22:37;2.35;;;1.33;;
21181;SDS011;10749;46.296;7.524;2022-07-12T02:25:03;4.43;;;1.98;;
21181;SDS011;10749;46.296;7.524;2022-07-12T02:27:28;2.13;;;1.55;;
21181;SDS011;10749;46.296;7.524;2022-07-12T02:29:54;1.67;;;1.30;;
21181;SDS011;10749;46.296;7.524;2022-07-12T02:32:19;1.98;;;1.48;;
21181;SDS011;10749;46.296;7.524;2022-07-12T02:34:45;2.17;;;1.17;;
21181;SDS011;10749;46.296;7.524;2022-07-12T02:37:10;2.60;;;1.40;;
21181;SDS011;10749;46.296;7.524;2022-07-12T02:39:35;1.98;;;1.40;;
21181;SDS011;10749;46.296;7.524;2022-07-12T02:42:01;2.83;;;1.55;;
21181;SDS011;10749;46.296;7.524;2022-07-12T02:44:26;1.52;;;1.30;;
21181;SDS011;10749;46.296;7.524;2022-07-12T02:46:51;2.70;;;1.40;;
21181;SDS011;10749;46.296;7.524;2022-07-12T02:49:17;3.58;;;1.80;;
21181;SDS011;10749;46.296;7.524;2022-07-12T02:51:42;2.08;;;1.58;;
21181;SDS011;10749;46.296;7.524;2022-07-12T02:54:07;3.08;;;1.60;;
21181;SDS011;10749;46.296;7.524;2022-07-12T02:56:32;2.28;;;1.40;;
21181;SDS011;10749;46.296;7.524;2022-07-12T02:58:58;2.75;;;1.52;;
21181;SDS011;10749;46.296;7.524;2022-07-12T03:01:23;2.53;;;1.85;;
21181;SDS011;10749;46.296;7.524;2022-07-12T03:03:48;1.65;;;1.40;;
21181;SDS011;10749;46.296;7.524;2022-07-12T03:06:14;3.05;;;1.48;;
21181;SDS011;10749;46.296;7.524;2022-07-12T03:08:40;2.70;;;1.73;;
21181;SDS011;10749;46.296;7.524;2022-07-12T03:11:05;2.15;;;1.50;;
21181;SDS011;10749;46.296;7.524;2022-07-12T03:13:30;2.20;;;1.52;;
21181;SDS011;10749;46.296;7.524;2022-07-12T03:15:56;3.13;;;1.58;;
21181;SDS011;10749;46.296;7.524;2022-07-12T03:18:21;2.15;;;1.67;;
21181;SDS011;10749;46.296;7.524;2022-07-12T03:20:46;1.80;;;1.50;;
21181;SDS011;10749;46.296;7.524;2022-07-12T03:23:13;3.58;;;1.75;;
21181;SDS011;10749;46.296;7.524;2022-07-12T03:25:39;4.22;;;1.73;;
21181;SDS011;10749;46.296;7.524;2022-07-12T03:28:04;2.88;;;1.42;;
21181;SDS011;10749;46.296;7.524;2022-07-12T03:30:29;3.30;;;1.40;;
21181;SDS011;10749;46.296;7.524;2022-07-12T03:32:55;2.08;;;1.60;;
21181;SDS011;10749;46.296;7.524;2022-07-12T03:35:20;2.97;;;1.75;;
21181;SDS011;10749;46.296;7.524;2022-07-12T03:37:47;3.85;;;1.73;;
21181;SDS011;10749;46.296;7.524;2022-07-12T03:40:14;3.30;;;1.73;;
21181;SDS011;10749;46.296;7.524;2022-07-12T03:42:41;4.82;;;1.70;;
21181;SDS011;10749;46.296;7.524;2022-07-12T03:45:07;4.60;;;1.67;;
21181;SDS011;10749;46.296;7.524;2022-07-12T03:47:33;5.63;;;2.65;;
21181;SDS011;10749;46.296;7.524;2022-07-12T03:50:06;3.97;;;2.33;;
21181;SDS011;10749;46.296;7.524;2022-07-12T03:52:33;2.33;;;1.70;;
21181;SDS011;10749;46.296;7.524;2022-07-12T03:54:59;5.13;;;1.90;;
21181;SDS011;10749;46.296;7.524;2022-07-12T03:57:26;2.25;;;1.60;;
21181;SDS011;10749;46.296;7.524;2022-07-12T03:59:52;2.25;;;1.75;;
21181;SDS011;10749;46.296;7.524;2022-07-12T04:02:17;4.25;;;2.70;;
21181;SDS011;10749;46.296;7.524;2022-07-12T04:04:43;5.32;;;2.40;;
21181;SDS011;10749;46.296;7.524;2022-07-12T04:07:09;2.90;;;1.80;;
21181;SDS011;10749;46.296;7.524;2022-07-12T04:09:34;6.22;;;2.13;;
21181;SDS011;10749;46.296;7.524;2022-07-12T04:11:59;4.15;;;1.70;;
21181;SDS011;10749;46.296;7.524;2022-07-12T04:14:25;2.70;;;1.85;;
21181;SDS011;10749;46.296;7.524;2022-07-12T04:16:50;2.15;;;1.92;;
21181;SDS011;10749;46.296;7.524;2022-07-12T04:19:15;1.95;;;1.52;;
21181;SDS011;10749;46.296;7.524;2022-07-12T04:21:41;5.00;;;2.08;;
21181;SDS011;10749;46.296;7.524;2022-07-12T04:24:07;2.28;;;1.80;;
21181;SDS011;10749;46.296;7.524;2022-07-12T04:26:32;4.18;;;1.83;;
21181;SDS011;10749;46.296;7.524;2022-07-12T04:28:58;2.63;;;1.73;;
21181;SDS011;10749;46.296;7.524;2022-07-12T04:31:23;1.98;;;1.60;;
21181;SDS011;10749;46.296;7.524;2022-07-12T04:33:49;3.38;;;2.25;;
21181;SDS011;10749;46.296;7.524;2022-07-12T04:36:15;3.85;;;2.20;;
21181;SDS011;10749;46.296;7.524;2022-07-12T04:38:40;3.47;;;1.90;;
21181;SDS011;10749;46.296;7.524;2022-07-12T04:41:06;2.20;;;1.77;;
21181;SDS011;10749;46.296;7.524;2022-07-12T04:43:31;3.08;;;2.20;;
21181;SDS011;10749;46.296;7.524;2022-07-12T04:46:04;3.92;;;1.80;;
21181;SDS011;10749;46.296;7.524;2022-07-12T04:48:30;6.00;;;2.03;;
21181;SDS011;10749;46.296;7.524;2022-07-12T04:50:55;4.40;;;2.10;;
21181;SDS011;10749;46.296;7.524;2022-07-12T04:53:21;5.00;;;2.00;;
21181;SDS011;10749;46.296;7.524;2022-07-12T04:55:46;3.20;;;1.70;;
21181;SDS011;10749;46.296;7.524;2022-07-12T04:58:11;5.15;;;2.03;;
21181;SDS011;10749;46.296;7.524;2022-07-12T05:00:37;2.17;;;1.73;;
21181;SDS011;10749;46.296;7.524;2022-07-12T05:03:02;2.65;;;1.95;;
21181;SDS011;10749;46.296;7.524;2022-07-12T05:05:27;2.70;;;1.60;;
21181;SDS011;10749;46.296;7.524;2022-07-12T05:07:53;4.00;;;1.83;;
21181;SDS011;10749;46.296;7.524;2022-07-12T05:10:18;7.68;;;1.98;;
21181;SDS011;10749;46.296;7.524;2022-07-12T05:12:43;2.95;;;1.60;;
21181;SDS011;10749;46.296;7.524;2022-07-12T05:15:09;3.17;;;1.77;;
21181;SDS011;10749;46.296;7.524;2022-07-12T05:17:34;2.10;;;1.90;;
21181;SDS011;10749;46.296;7.524;2022-07-12T05:19:59;2.20;;;2.00;;
21181;SDS011;10749;46.296;7.524;2022-07-12T05:22:25;4.78;;;2.40;;
21181;SDS011;10749;46.296;7.524;2022-07-12T05:24:50;5.43;;;2.55;;
21181;SDS011;10749;46.296;7.524;2022-07-12T05:27:15;4.93;;;2.10;;
21181;SDS011;10749;46.296;7.524;2022-07-12T05:29:41;7.60;;;2.60;;
21181;SDS011;10749;46.296;7.524;2022-07-12T05:32:06;3.33;;;1.90;;
21181;SDS011;10749;46.296;7.524;2022-07-12T05:34:32;5.90;;;2.60;;
21181;SDS011;10749;46.296;7.524;2022-07-12T05:36:57;6.63;;;2.35;;
21181;SDS011;10749;46.296;7.524;2022-07-12T05:39:23;4.60;;;2.45;;
21181;SDS011;10749;46.296;7.524;2022-07-12T05:41:48;5.18;;;2.85;;
21181;SDS011;10749;46.296;7.524;2022-07-12T05:44:13;6.70;;;2.50;;
21181;SDS011;10749;46.296;7.524;2022-07-12T05:46:42;5.35;;;2.45;;
21181;SDS011;10749;46.296;7.524;2022-07-12T05:49:07;7.38;;;2.50;;
21181;SDS011;10749;46.296;7.524;2022-07-12T05:51:32;4.68;;;2.75;;
21181;SDS011;10749;46.296;7.524;2022-07-12T05:54:16;9.07;;;2.30;;
21181;SDS011;10749;46.296;7.524;2022-07-12T05:56:42;4.28;;;2.47;;
21181;SDS011;10749;46.296;7.524;2022-07-12T05:59:07;2.75;;;2.35;;
21181;SDS011;10749;46.296;7.524;2022-07-12T06:01:33;4.57;;;2.30;;
21181;SDS011;10749;46.296;7.524;2022-07-12T06:03:58;3.70;;;2.40;;
21181;SDS011;10749;46.296;7.524;2022-07-12T06:06:23;5.65;;;2.65;;
21181;SDS011;10749;46.296;7.524;2022-07-12T06:08:49;6.88;;;2.70;;
21181;SDS011;10749;46.296;7.524;2022-07-12T06:11:14;3.80;;;2.08;;
21181;SDS011;10749;46.296;7.524;2022-07-12T06:13:39;4.32;;;2.25;;
21181;SDS011;10749;46.296;7.524;2022-07-12T06:16:05;6.40;;;2.28;;
21181;SDS011;10749;46.296;7.524;2022-07-12T06:18:31;7.18;;;2.40;;
21181;SDS011;10749;46.296;7.524;2022-07-12T06:20:59;6.47;;;2.65;;
21181;SDS011;10749;46.296;7.524;2022-07-12T06:23:24;8.20;;;2.88;;
21181;SDS011;10749;46.296;7.524;2022-07-12T06:25:49;6.75;;;3.05;;
21181;SDS011;10749;46.296;7.524;2022-07-12T06:28:14;5.82;;;2.85;;
21181;SDS011;10749;46.296;7.524;2022-07-12T06:30:40;8.25;;;2.95;;
21181;SDS011;10749;46.296;7.524;2022-07-12T06:33:06;6.95;;;3.05;;
21181;SDS011;10749;46.296;7.524;2022-07-12T06:35:31;5.68;;;2.65;;
21181;SDS011;10749;46.296;7.524;2022-07-12T06:37:58;6.93;;;3.00;;
21181;SDS011;10749;46.296;7.524;2022-07-12T06:40:24;4.35;;;2.80;;
21181;SDS011;10749;46.296;7.524;2022-07-12T06:42:49;5.25;;;2.70;;
21181;SDS011;10749;46.296;7.524;2022-07-12T06:45:15;6.82;;;2.65;;
21181;SDS011;10749;46.296;7.524;2022-07-12T06:47:41;8.13;;;2.50;;
21181;SDS011;10749;46.296;7.524;2022-07-12T06:50:06;4.93;;;2.45;;
21181;SDS011;10749;46.296;7.524;2022-07-12T06:52:32;9.57;;;2.95;;
21181;SDS011;10749;46.296;7.524;2022-07-12T06:54:58;8.30;;;3.30;;
21181;SDS011;10749;46.296;7.524;2022-07-12T06:57:23;9.18;;;3.03;;
21181;SDS011;10749;46.296;7.524;2022-07-12T06:59:49;7.75;;;3.28;;
21181;SDS011;10749;46.296;7.524;2022-07-12T07:02:14;9.27;;;3.10;;
21181;SDS011;10749;46.296;7.524;2022-07-12T07:04:40;5.25;;;3.00;;
21181;SDS011;10749;46.296;7.524;2022-07-12T07:07:06;6.65;;;3.13;;
21181;SDS011;10749;46.296;7.524;2022-07-12T07:09:31;9.55;;;3.00;;
21181;SDS011;10749;46.296;7.524;2022-07-12T07:11:56;5.93;;;2.60;;
21181;SDS011;10749;46.296;7.524;2022-07-12T07:14:21;4.30;;;2.70;;
21181;SDS011;10749;46.296;7.524;2022-07-12T07:16:47;4.10;;;2.40;;
21181;SDS011;10749;46.296;7.524;2022-07-12T07:19:12;4.78;;;2.53;;
21181;SDS011;10749;46.296;7.524;2022-07-12T07:21:37;2.42;;;2.00;;
21181;SDS011;10749;46.296;7.524;2022-07-12T07:24:03;3.67;;;2.20;;
21181;SDS011;10749;46.296;7.524;2022-07-12T07:26:29;5.20;;;2.25;;
21181;SDS011;10749;46.296;7.524;2022-07-12T07:28:55;5.07;;;1.90;;
21181;SDS011;10749;46.296;7.524;2022-07-12T07:31:39;4.32;;;1.88;;
21181;SDS011;10749;46.296;7.524;2022-07-12T07:34:05;5.50;;;2.30;;
21181;SDS011;10749;46.296;7.524;2022-07-12T07:36:30;6.55;;;2.05;;
21181;SDS011;10749;46.296;7.524;2022-07-12T07:38:57;5.03;;;2.20;;
21181;SDS011;10749;46.296;7.524;2022-07-12T07:41:23;4.95;;;2.38;;
21181;SDS011;10749;46.296;7.524;2022-07-12T07:43:48;6.53;;;2.22;;
21181;SDS011;10749;46.296;7.524;2022-07-12T07:46:13;4.38;;;2.40;;
21181;SDS011;10749;46.296;7.524;2022-07-12T07:48:39;4.10;;;2.10;;
21181;SDS011;10749;46.296;7.524;2022-07-12T07:51:04;2.22;;;1.88;;
21181;SDS011;10749;46.296;7.524;2022-07-12T07:53:29;4.53;;;2.30;;
21181;SDS011;10749;46.296;7.524;2022-07-12T07:55:55;6.10;;;2.13;;
21181;SDS011;10749;46.296;7.524;2022-07-12T07:58:20;6.30;;;2.50;;
21181;SDS011;10749;46.296;7.524;2022-07-12T08:00:46;4.95;;;1.98;;
21181;SDS011;10749;46.296;7.524;2022-07-12T08:03:12;7.10;;;2.20;;
21181;SDS011;10749;46.296;7.524;2022-07-12T08:05:38;3.45;;;2.00;;
21181;SDS011;10749;46.296;7.524;2022-07-12T08:08:03;5.10;;;2.20;;
21181;SDS011;10749;46.296;7.524;2022-07-12T08:10:29;3.17;;;2.13;;
21181;SDS011;10749;46.296;7.524;2022-07-12T08:12:54;2.83;;;1.90;;
21181;SDS011;10749;46.296;7.524;2022-07-12T08:15:20;6.25;;;2.20;;
21181;SDS011;10749;46.296;7.524;2022-07-12T08:17:45;3.53;;;2.15;;
21181;SDS011;10749;46.296;7.524;2022-07-12T08:20:10;4.43;;;2.33;;
21181;SDS011;10749;46.296;7.524;2022-07-12T08:22:42;5.93;;;1.90;;
21181;SDS011;10749;46.296;7.524;2022-07-12T08:25:09;3.72;;;1.80;;
21181;SDS011;10749;46.296;7.524;2022-07-12T08:27:34;4.47;;;2.10;;
21181;SDS011;10749;46.296;7.524;2022-07-12T08:29:59;5.80;;;2.05;;
21181;SDS011;10749;46.296;7.524;2022-07-12T08:32:24;4.50;;;1.95;;
21181;SDS011;10749;46.296;7.524;2022-07-12T08:34:50;4.10;;;2.08;;
21181;SDS011;10749;46.296;7.524;2022-07-12T08:37:15;4.43;;;2.20;;
21181;SDS011;10749;46.296;7.524;2022-07-12T08:39:40;4.70;;;2.03;;
21181;SDS011;10749;46.296;7.524;2022-07-12T08:42:06;9.90;;;2.92;;
21181;SDS011;10749;46.296;7.524;2022-07-12T08:44:33;10.20;;;2.80;;
21181;SDS011;10749;46.296;7.524;2022-07-12T08:46:58;5.38;;;2.20;;
21181;SDS011;10749;46.296;7.524;2022-07-12T08:49:24;7.95;;;2.67;;
21181;SDS011;10749;46.296;7.524;2022-07-12T08:51:49;2.92;;;2.10;;
21181;SDS011;10749;46.296;7.524;2022-07-12T08:54:14;10.60;;;2.85;;
21181;SDS011;10749;46.296;7.524;2022-07-12T08:56:43;4.85;;;2.28;;
21181;SDS011;10749;46.296;7.524;2022-07-12T08:59:10;5.47;;;1.73;;
21181;SDS011;10749;46.296;7.524;2022-07-12T09:01:40;4.70;;;2.05;;
21181;SDS011;10749;46.296;7.524;2022-07-12T09:04:09;3.30;;;1.95;;
21181;SDS011;10749;46.296;7.524;2022-07-12T09:06:36;7.90;;;1.90;;
21181;SDS011;10749;46.296;7.524;2022-07-12T09:09:01;3.47;;;1.80;;
21181;SDS011;10749;46.296;7.524;2022-07-12T09:11:26;3.20;;;1.75;;
21181;SDS011;10749;46.296;7.524;2022-07-12T09:13:52;3.45;;;1.80;;
21181;SDS011;10749;46.296;7.524;2022-07-12T09:16:21;4.50;;;1.85;;
21181;SDS011;10749;46.296;7.524;2022-07-12T09:18:48;9.55;;;2.40;;
21181;SDS011;10749;46.296;7.524;2022-07-12T09:21:21;5.43;;;2.10;;
21181;SDS011;10749;46.296;7.524;2022-07-12T09:23:57;9.77;;;2.38;;
21181;SDS011;10749;46.296;7.524;2022-07-12T09:26:30;4.32;;;2.05;;
21181;SDS011;10749;46.296;7.524;2022-07-12T09:29:04;5.63;;;1.85;;
21181;SDS011;10749;46.296;7.524;2022-07-12T09:31:44;3.88;;;2.25;;
21181;SDS011;10749;46.296;7.524;2022-07-12T09:34:31;4.43;;;1.83;;
21181;SDS011;10749;46.296;7.524;2022-07-12T09:37:15;12.32;;;2.70;;
21181;SDS011;10749;46.296;7.524;2022-07-12T09:39:40;5.30;;;1.75;;
21181;SDS011;10749;46.296;7.524;2022-07-12T09:42:09;5.03;;;1.85;;
21181;SDS011;10749;46.296;7.524;2022-07-12T09:44:36;5.22;;;1.80;;
21181;SDS011;10749;46.296;7.524;2022-07-12T09:47:02;4.00;;;1.73;;
21181;SDS011;10749;46.296;7.524;2022-07-12T09:49:28;2.17;;;1.60;;
21181;SDS011;10749;46.296;7.524;2022-07-12T09:51:55;4.70;;;1.52;;
21181;SDS011;10749;46.296;7.524;2022-07-12T09:54:24;3.53;;;1.70;;
21181;SDS011;10749;46.296;7.524;2022-07-12T09:56:54;4.40;;;2.10;;
21181;SDS011;10749;46.296;7.524;2022-07-12T09:59:23;4.53;;;2.20;;
21181;SDS011;10749;46.296;7.524;2022-07-12T10:01:52;5.30;;;1.50;;
21181;SDS011;10749;46.296;7.524;2022-07-12T10:04:21;3.50;;;1.77;;
21181;SDS011;10749;46.296;7.524;2022-07-12T10:06:47;3.05;;;1.70;;
21181;SDS011;10749;46.296;7.524;2022-07-12T10:09:13;3.35;;;1.60;;
21181;SDS011;10749;46.296;7.524;2022-07-12T10:11:40;3.38;;;1.65;;
21181;SDS011;10749;46.296;7.524;2022-07-12T10:14:07;2.40;;;1.70;;
21181;SDS011;10749;46.296;7.524;2022-07-12T10:16:35;3.08;;;1.70;;
21181;SDS011;10749;46.296;7.524;2022-07-12T10:21:51;4.60;;;1.80;;
21181;SDS011;10749;46.296;7.524;2022-07-12T10:26:58;4.18;;;1.63;;
21181;SDS011;10749;46.296;7.524;2022-07-12T10:29:24;4.53;;;1.70;;
21181;SDS011;10749;46.296;7.524;2022-07-12T10:31:50;5.13;;;1.75;;
21181;SDS011;10749;46.296;7.524;2022-07-12T10:34:20;2.88;;;1.80;;
21181;SDS011;10749;46.296;7.524;2022-07-12T10:39:19;4.00;;;1.73;;
21181;SDS011;10749;46.296;7.524;2022-07-12T10:41:44;4.82;;;1.73;;
21181;SDS011;10749;46.296;7.524;2022-07-12T10:44:40;4.30;;;1.75;;
21181;SDS011;10749;46.296;7.524;2022-07-12T10:47:09;2.45;;;1.80;;
21181;SDS011;10749;46.296;7.524;2022-07-12T10:49:37;4.50;;;1.80;;
21181;SDS011;10749;46.296;7.524;2022-07-12T10:54:39;3.65;;;1.63;;
21181;SDS011;10749;46.296;7.524;2022-07-12T10:57:08;4.90;;;1.70;;
21181;SDS011;10749;46.296;7.524;2022-07-12T10:59:34;1.95;;;1.60;;
21181;SDS011;10749;46.296;7.524;2022-07-12T11:02:02;2.55;;;1.52;;
21181;SDS011;10749;46.296;7.524;2022-07-12T11:04:28;3.28;;;1.50;;
21181;SDS011;10749;46.296;7.524;2022-07-12T11:06:54;2.63;;;1.10;;
21181;SDS011;10749;46.296;7.524;2022-07-12T11:09:24;2.90;;;1.45;;
21181;SDS011;10749;46.296;7.524;2022-07-12T11:11:50;3.45;;;1.40;;
21181;SDS011;10749;46.296;7.524;2022-07-12T11:14:20;2.30;;;1.48;;
21181;SDS011;10749;46.296;7.524;2022-07-12T11:16:47;3.85;;;1.33;;
21181;SDS011;10749;46.296;7.524;2022-07-12T11:19:14;4.15;;;1.42;;
21181;SDS011;10749;46.296;7.524;2022-07-12T11:21:43;1.55;;;1.33;;
21181;SDS011;10749;46.296;7.524;2022-07-12T11:24:16;3.28;;;1.30;;
21181;SDS011;10749;46.296;7.524;2022-07-12T11:26:46;2.25;;;1.10;;
21181;SDS011;10749;46.296;7.524;2022-07-12T11:29:12;5.78;;;1.73;;
21181;SDS011;10749;46.296;7.524;2022-07-12T11:31:38;4.97;;;1.65;;
21181;SDS011;10749;46.296;7.524;2022-07-12T11:34:03;4.25;;;1.25;;
21181;SDS011;10749;46.296;7.524;2022-07-12T11:36:28;4.28;;;1.38;;
21181;SDS011;10749;46.296;7.524;2022-07-12T11:38:55;4.03;;;1.10;;
21181;SDS011;10749;46.296;7.524;2022-07-12T11:41:21;3.08;;;1.00;;
21181;SDS011;10749;46.296;7.524;2022-07-12T11:43:47;3.95;;;1.77;;
21181;SDS011;10749;46.296;7.524;2022-07-12T11:46:13;5.82;;;1.80;;
21181;SDS011;10749;46.296;7.524;2022-07-12T11:48:39;4.65;;;1.70;;
21181;SDS011;10749;46.296;7.524;2022-07-12T11:51:07;4.15;;;1.95;;
21181;SDS011;10749;46.296;7.524;2022-07-12T11:53:38;2.60;;;1.40;;
21181;SDS011;10749;46.296;7.524;2022-07-12T11:56:05;4.63;;;1.48;;
21181;SDS011;10749;46.296;7.524;2022-07-12T11:58:32;3.75;;;1.90;;
21181;SDS011;10749;46.296;7.524;2022-07-12T12:00:58;4.68;;;1.50;;
21181;SDS011;10749;46.296;7.524;2022-07-12T12:03:24;4.75;;;1.77;;
21181;SDS011;10749;46.296;7.524;2022-07-12T12:05:53;2.47;;;1.40;;
21181;SDS011;10749;46.296;7.524;2022-07-12T12:08:19;3.40;;;1.20;;
21181;SDS011;10749;46.296;7.524;2022-07-12T12:10:52;6.05;;;2.17;;
21181;SDS011;10749;46.296;7.524;2022-07-12T12:13:28;3.05;;;1.80;;
21181;SDS011;10749;46.296;7.524;2022-07-12T12:15:55;4.22;;;1.35;;
21181;SDS011;10749;46.296;7.524;2022-07-12T12:18:33;4.03;;;1.40;;
21181;SDS011;10749;46.296;7.524;2022-07-12T12:21:06;3.67;;;0.82;;
21181;SDS011;10749;46.296;7.524;2022-07-12T12:23:33;1.75;;;1.00;;
21181;SDS011;10749;46.296;7.524;2022-07-12T12:26:11;2.97;;;1.05;;
21181;SDS011;10749;46.296;7.524;2022-07-12T12:31:16;1.73;;;1.10;;
21181;SDS011;10749;46.296;7.524;2022-07-12T12:38:40;3.83;;;1.00;;
21181;SDS011;10749;46.296;7.524;2022-07-12T12:41:07;4.90;;;1.55;;
21181;SDS011;10749;46.296;7.524;2022-07-12T12:43:33;1.45;;;0.60;;
21181;SDS011;10749;46.296;7.524;2022-07-12T12:45:58;2.53;;;0.80;;
21181;SDS011;10749;46.296;7.524;2022-07-12T12:48:24;1.50;;;0.70;;
21181;SDS011;10749;46.296;7.524;2022-07-12T12:50:51;1.00;;;0.68;;
21181;SDS011;10749;46.296;7.524;2022-07-12T12:53:22;2.38;;;0.60;;
21181;SDS011;10749;46.296;7.524;2022-07-12T12:55:52;2.30;;;0.60;;
21181;SDS011;10749;46.296;7.524;2022-07-12T12:58:19;2.03;;;0.60;;
21181;SDS011;10749;46.296;7.524;2022-07-12T13:00:47;3.72;;;1.02;;
21181;SDS011;10749;46.296;7.524;2022-07-12T13:03:14;4.82;;;0.90;;
21181;SDS011;10749;46.296;7.524;2022-07-12T13:05:40;2.65;;;0.70;;
21181;SDS011;10749;46.296;7.524;2022-07-12T13:08:07;5.00;;;0.90;;
21181;SDS011;10749;46.296;7.524;2022-07-12T13:10:35;3.97;;;0.85;;
21181;SDS011;10749;46.296;7.524;2022-07-12T13:13:02;3.97;;;0.95;;
21181;SDS011;10749;46.296;7.524;2022-07-12T13:15:28;3.90;;;0.70;;
21181;SDS011;10749;46.296;7.524;2022-07-12T13:17:55;1.35;;;0.60;;
21181;SDS011;10749;46.296;7.524;2022-07-12T13:20:20;1.88;;;0.63;;
21181;SDS011;10749;46.296;7.524;2022-07-12T13:22:47;1.67;;;0.85;;
21181;SDS011;10749;46.296;7.524;2022-07-12T13:25:13;1.80;;;0.80;;
21181;SDS011;10749;46.296;7.524;2022-07-12T13:27:39;1.98;;;0.70;;
21181;SDS011;10749;46.296;7.524;2022-07-12T13:30:07;1.48;;;0.60;;
21181;SDS011;10749;46.296;7.524;2022-07-12T13:32:34;1.00;;;0.70;;
21181;SDS011;10749;46.296;7.524;2022-07-12T13:35:00;3.78;;;0.82;;
21181;SDS011;10749;46.296;7.524;2022-07-12T13:37:26;2.95;;;0.43;;
21181;SDS011;10749;46.296;7.524;2022-07-12T13:39:52;2.35;;;0.60;;
21181;SDS011;10749;46.296;7.524;2022-07-12T13:42:36;2.33;;;0.60;;
21181;SDS011;10749;46.296;7.524;2022-07-12T13:45:06;1.10;;;0.57;;
21181;SDS011;10749;46.296;7.524;2022-07-12T13:47:34;1.05;;;0.52;;
21181;SDS011;10749;46.296;7.524;2022-07-12T13:49:59;0.95;;;0.50;;
21181;SDS011;10749;46.296;7.524;2022-07-12T13:52:25;2.00;;;0.50;;
21181;SDS011;10749;46.296;7.524;2022-07-12T13:54:50;1.60;;;0.55;;
21181;SDS011;10749;46.296;7.524;2022-07-12T13:57:15;3.25;;;0.50;;
21181;SDS011;10749;46.296;7.524;2022-07-12T13:59:41;1.83;;;0.60;;
21181;SDS011;10749;46.296;7.524;2022-07-12T14:02:06;2.05;;;0.68;;
21181;SDS011;10749;46.296;7.524;2022-07-12T14:04:31;1.10;;;0.40;;
21181;SDS011;10749;46.296;7.524;2022-07-12T14:06:57;1.30;;;0.60;;
21181;SDS011;10749;46.296;7.524;2022-07-12T14:09:23;3.17;;;0.55;;
21181;SDS011;10749;46.296;7.524;2022-07-12T14:11:49;1.58;;;0.50;;
21181;SDS011;10749;46.296;7.524;2022-07-12T14:14:14;2.30;;;0.57;;
21181;SDS011;10749;46.296;7.524;2022-07-12T14:16:40;2.05;;;0.40;;
21181;SDS011;10749;46.296;7.524;2022-07-12T14:19:05;1.05;;;0.50;;
21181;SDS011;10749;46.296;7.524;2022-07-12T14:21:31;0.93;;;0.52;;
21181;SDS011;10749;46.296;7.524;2022-07-12T14:23:56;1.02;;;0.50;;
21181;SDS011;10749;46.296;7.524;2022-07-12T14:26:26;2.88;;;0.50;;
21181;SDS011;10749;46.296;7.524;2022-07-12T14:28:51;0.60;;;0.50;;
21181;SDS011;10749;46.296;7.524;2022-07-12T14:31:17;1.40;;;0.65;;
21181;SDS011;10749;46.296;7.524;2022-07-12T14:33:42;2.63;;;0.80;;
21181;SDS011;10749;46.296;7.524;2022-07-12T14:36:07;0.70;;;0.60;;
21181;SDS011;10749;46.296;7.524;2022-07-12T14:38:33;1.48;;;0.65;;
21181;SDS011;10749;46.296;7.524;2022-07-12T14:40:58;1.33;;;0.60;;
21181;SDS011;10749;46.296;7.524;2022-07-12T14:43:24;2.42;;;0.95;;
21181;SDS011;10749;46.296;7.524;2022-07-12T14:45:49;1.55;;;0.73;;
21181;SDS011;10749;46.296;7.524;2022-07-12T14:48:14;1.95;;;0.60;;
21181;SDS011;10749;46.296;7.524;2022-07-12T14:50:40;1.40;;;0.60;;
21181;SDS011;10749;46.296;7.524;2022-07-12T14:53:05;2.45;;;0.70;;
21181;SDS011;10749;46.296;7.524;2022-07-12T14:55:30;1.55;;;0.70;;
21181;SDS011;10749;46.296;7.524;2022-07-12T14:57:56;3.63;;;0.90;;
21181;SDS011;10749;46.296;7.524;2022-07-12T15:00:22;0.68;;;0.60;;
21181;SDS011;10749;46.296;7.524;2022-07-12T15:02:48;1.55;;;0.70;;
21181;SDS011;10749;46.296;7.524;2022-07-12T15:05:13;1.00;;;0.70;;